sensor_id;sensor_type;location;lat;lon;timestamp;P1;durP1;ratioP1;P2;durP2;ratioP2
43662;SDS011;74813;56.104;40.358;2024-03-23T00:54:40;56.85;;;24.15;;
43662;SDS011;74813;56.104;40.358;2024-03-23T00:57:12;53.97;;;24.80;;
43662;SDS011;74813;56.104;40.358;2024-03-23T00:59:45;51.05;;;23.23;;
43662;SDS011;74813;56.104;40.358;2024-03-23T01:02:17;52.13;;;23.45;;
43662;SDS011;74813;56.104;40.358;2024-03-23T01:04:49;49.53;;;22.70;;
43662;SDS011;74813;56.104;40.358;2024-03-23T01:07:22;53.40;;;24.42;;
43662;SDS011;74813;56.104;40.358;2024-03-23T01:09:54;52.60;;;24.10;;
43662;SDS011;74813;56.104;40.358;2024-03-23T01:12:27;52.33;;;23.05;;
43662;SDS011;74813;56.104;40.358;2024-03-23T01:14:59;48.95;;;22.40;;
43662;SDS011;74813;56.104;40.358;2024-03-23T01:17:31;52.22;;;23.45;;
43662;SDS011;74813;56.104;40.358;2024-03-23T01:20:04;54.72;;;23.23;;
43662;SDS011;74813;56.104;40.358;2024-03-23T01:22:37;54.65;;;24.13;;
43662;SDS011;74813;56.104;40.358;2024-03-23T01:25:09;52.70;;;22.25;;
43662;SDS011;74813;56.104;40.358;2024-03-23T01:27:42;58.10;;;23.92;;
43662;SDS011;74813;56.104;40.358;2024-03-23T01:30:14;50.22;;;23.70;;
43662;SDS011;74813;56.104;40.358;2024-03-23T01:32:46;51.25;;;22.70;;
43662;SDS011;74813;56.104;40.358;2024-03-23T01:35:19;52.30;;;24.30;;
43662;SDS011;74813;56.104;40.358;2024-03-23T01:37:51;50.97;;;23.77;;
43662;SDS011;74813;56.104;40.358;2024-03-23T01:40:24;47.13;;;22.20;;
43662;SDS011;74813;56.104;40.358;2024-03-23T01:42:57;52.22;;;23.05;;
43662;SDS011;74813;56.104;40.358;2024-03-23T01:45:37;51.42;;;23.02;;
43662;SDS011;74813;56.104;40.358;2024-03-23T01:48:10;54.58;;;24.38;;
43662;SDS011;74813;56.104;40.358;2024-03-23T01:50:42;56.17;;;23.23;;
43662;SDS011;74813;56.104;40.358;2024-03-23T01:53:15;56.20;;;25.95;;
43662;SDS011;74813;56.104;40.358;2024-03-23T01:55:47;53.17;;;24.85;;
43662;SDS011;74813;56.104;40.358;2024-03-23T01:58:21;48.85;;;22.67;;
43662;SDS011;74813;56.104;40.358;2024-03-23T02:00:53;54.05;;;23.52;;
43662;SDS011;74813;56.104;40.358;2024-03-23T02:03:26;53.20;;;23.08;;
43662;SDS011;74813;56.104;40.358;2024-03-23T02:05:59;53.45;;;24.60;;
43662;SDS011;74813;56.104;40.358;2024-03-23T02:08:32;51.92;;;23.58;;
43662;SDS011;74813;56.104;40.358;2024-03-23T02:11:05;55.40;;;26.25;;
43662;SDS011;74813;56.104;40.358;2024-03-23T02:13:37;53.45;;;25.30;;
43662;SDS011;74813;56.104;40.358;2024-03-23T02:16:10;54.88;;;22.90;;
43662;SDS011;74813;56.104;40.358;2024-03-23T02:18:42;57.72;;;23.63;;
43662;SDS011;74813;56.104;40.358;2024-03-23T02:21:15;53.03;;;23.17;;
43662;SDS011;74813;56.104;40.358;2024-03-23T02:23:47;56.75;;;26.40;;
43662;SDS011;74813;56.104;40.358;2024-03-23T02:26:20;56.50;;;22.88;;
43662;SDS011;74813;56.104;40.358;2024-03-23T02:28:52;57.78;;;25.35;;
43662;SDS011;74813;56.104;40.358;2024-03-23T02:31:24;56.75;;;24.80;;
43662;SDS011;74813;56.104;40.358;2024-03-23T02:33:57;55.83;;;24.08;;
43662;SDS011;74813;56.104;40.358;2024-03-23T02:36:29;59.00;;;24.73;;
43662;SDS011;74813;56.104;40.358;2024-03-23T02:39:02;58.90;;;25.60;;
43662;SDS011;74813;56.104;40.358;2024-03-23T02:41:34;60.95;;;25.05;;
43662;SDS011;74813;56.104;40.358;2024-03-23T02:44:06;59.15;;;26.60;;
43662;SDS011;74813;56.104;40.358;2024-03-23T02:46:39;64.30;;;26.35;;
43662;SDS011;74813;56.104;40.358;2024-03-23T02:49:11;55.30;;;23.58;;
43662;SDS011;74813;56.104;40.358;2024-03-23T02:51:43;52.97;;;23.95;;
43662;SDS011;74813;56.104;40.358;2024-03-23T02:54:16;56.88;;;24.77;;
43662;SDS011;74813;56.104;40.358;2024-03-23T02:56:48;59.45;;;26.02;;
43662;SDS011;74813;56.104;40.358;2024-03-23T02:59:21;59.10;;;27.27;;
43662;SDS011;74813;56.104;40.358;2024-03-23T03:01:53;55.03;;;24.67;;
43662;SDS011;74813;56.104;40.358;2024-03-23T03:04:25;53.60;;;23.65;;
43662;SDS011;74813;56.104;40.358;2024-03-23T03:06:58;53.42;;;23.33;;
43662;SDS011;74813;56.104;40.358;2024-03-23T03:09:30;61.30;;;25.65;;
43662;SDS011;74813;56.104;40.358;2024-03-23T03:12:03;58.13;;;26.70;;
43662;SDS011;74813;56.104;40.358;2024-03-23T03:14:35;62.58;;;26.77;;
43662;SDS011;74813;56.104;40.358;2024-03-23T03:17:08;64.30;;;27.50;;
43662;SDS011;74813;56.104;40.358;2024-03-23T03:19:40;55.60;;;25.95;;
43662;SDS011;74813;56.104;40.358;2024-03-23T03:22:12;54.97;;;25.10;;
43662;SDS011;74813;56.104;40.358;2024-03-23T03:24:45;60.90;;;26.05;;
43662;SDS011;74813;56.104;40.358;2024-03-23T03:27:17;52.55;;;23.90;;
43662;SDS011;74813;56.104;40.358;2024-03-23T03:29:50;58.10;;;26.40;;
43662;SDS011;74813;56.104;40.358;2024-03-23T03:32:22;60.33;;;25.55;;
43662;SDS011;74813;56.104;40.358;2024-03-23T03:34:54;53.88;;;24.65;;
43662;SDS011;74813;56.104;40.358;2024-03-23T03:37:27;59.13;;;26.92;;
43662;SDS011;74813;56.104;40.358;2024-03-23T03:39:59;55.28;;;26.10;;
43662;SDS011;74813;56.104;40.358;2024-03-23T03:42:31;52.28;;;23.73;;
43662;SDS011;74813;56.104;40.358;2024-03-23T03:45:04;52.97;;;23.98;;
43662;SDS011;74813;56.104;40.358;2024-03-23T03:47:37;56.35;;;23.83;;
43662;SDS011;74813;56.104;40.358;2024-03-23T03:50:10;52.72;;;24.13;;
43662;SDS011;74813;56.104;40.358;2024-03-23T03:52:42;58.08;;;24.98;;
43662;SDS011;74813;56.104;40.358;2024-03-23T03:55:15;57.85;;;24.45;;
43662;SDS011;74813;56.104;40.358;2024-03-23T03:57:48;50.38;;;24.17;;
43662;SDS011;74813;56.104;40.358;2024-03-23T04:00:20;56.92;;;25.15;;
43662;SDS011;74813;56.104;40.358;2024-03-23T04:02:53;56.58;;;24.17;;
43662;SDS011;74813;56.104;40.358;2024-03-23T04:05:25;53.85;;;21.23;;
43662;SDS011;74813;56.104;40.358;2024-03-23T04:07:57;51.45;;;23.88;;
43662;SDS011;74813;56.104;40.358;2024-03-23T04:10:30;56.75;;;24.30;;
43662;SDS011;74813;56.104;40.358;2024-03-23T04:13:02;52.80;;;25.08;;
43662;SDS011;74813;56.104;40.358;2024-03-23T04:15:35;49.88;;;23.00;;
43662;SDS011;74813;56.104;40.358;2024-03-23T04:18:07;52.97;;;23.95;;
43662;SDS011;74813;56.104;40.358;2024-03-23T04:20:40;54.22;;;23.33;;
43662;SDS011;74813;56.104;40.358;2024-03-23T04:23:12;49.17;;;21.85;;
43662;SDS011;74813;56.104;40.358;2024-03-23T04:25:44;49.63;;;22.67;;
43662;SDS011;74813;56.104;40.358;2024-03-23T04:28:17;47.17;;;22.58;;
43662;SDS011;74813;56.104;40.358;2024-03-23T04:30:49;49.25;;;23.15;;
43662;SDS011;74813;56.104;40.358;2024-03-23T04:33:21;49.22;;;23.63;;
43662;SDS011;74813;56.104;40.358;2024-03-23T04:35:54;52.90;;;23.42;;
43662;SDS011;74813;56.104;40.358;2024-03-23T04:38:26;49.97;;;22.23;;
43662;SDS011;74813;56.104;40.358;2024-03-23T04:40:59;48.75;;;22.90;;
43662;SDS011;74813;56.104;40.358;2024-03-23T04:43:32;47.85;;;22.63;;
43662;SDS011;74813;56.104;40.358;2024-03-23T04:46:04;47.70;;;24.85;;
43662;SDS011;74813;56.104;40.358;2024-03-23T04:48:36;44.53;;;20.60;;
43662;SDS011;74813;56.104;40.358;2024-03-23T04:51:09;47.50;;;21.85;;
43662;SDS011;74813;56.104;40.358;2024-03-23T04:53:41;45.20;;;20.27;;
43662;SDS011;74813;56.104;40.358;2024-03-23T04:56:14;45.92;;;20.85;;
43662;SDS011;74813;56.104;40.358;2024-03-23T04:58:47;48.80;;;23.33;;
43662;SDS011;74813;56.104;40.358;2024-03-23T05:01:19;48.72;;;21.45;;
43662;SDS011;74813;56.104;40.358;2024-03-23T05:03:52;44.22;;;20.55;;
43662;SDS011;74813;56.104;40.358;2024-03-23T05:06:24;45.80;;;22.20;;
43662;SDS011;74813;56.104;40.358;2024-03-23T05:08:57;44.63;;;20.80;;
43662;SDS011;74813;56.104;40.358;2024-03-23T05:11:29;43.53;;;20.85;;
43662;SDS011;74813;56.104;40.358;2024-03-23T05:14:02;45.45;;;20.95;;
43662;SDS011;74813;56.104;40.358;2024-03-23T05:16:34;47.50;;;21.60;;
43662;SDS011;74813;56.104;40.358;2024-03-23T05:19:07;45.67;;;22.60;;
43662;SDS011;74813;56.104;40.358;2024-03-23T05:21:39;47.35;;;21.67;;
43662;SDS011;74813;56.104;40.358;2024-03-23T05:24:11;39.38;;;20.00;;
43662;SDS011;74813;56.104;40.358;2024-03-23T05:26:44;43.95;;;20.63;;
43662;SDS011;74813;56.104;40.358;2024-03-23T05:29:16;49.38;;;21.20;;
43662;SDS011;74813;56.104;40.358;2024-03-23T05:31:49;40.50;;;20.33;;
43662;SDS011;74813;56.104;40.358;2024-03-23T05:34:23;38.75;;;17.92;;
43662;SDS011;74813;56.104;40.358;2024-03-23T05:36:55;38.85;;;19.60;;
43662;SDS011;74813;56.104;40.358;2024-03-23T05:39:28;38.38;;;18.88;;
43662;SDS011;74813;56.104;40.358;2024-03-23T05:42:00;38.20;;;19.58;;
43662;SDS011;74813;56.104;40.358;2024-03-23T05:44:33;38.45;;;18.70;;
43662;SDS011;74813;56.104;40.358;2024-03-23T05:47:05;37.95;;;18.90;;
43662;SDS011;74813;56.104;40.358;2024-03-23T05:49:38;35.47;;;17.98;;
43662;SDS011;74813;56.104;40.358;2024-03-23T05:52:10;38.80;;;18.70;;
43662;SDS011;74813;56.104;40.358;2024-03-23T05:54:42;39.30;;;19.15;;
43662;SDS011;74813;56.104;40.358;2024-03-23T05:57:15;40.38;;;19.45;;
43662;SDS011;74813;56.104;40.358;2024-03-23T05:59:47;36.30;;;18.30;;
43662;SDS011;74813;56.104;40.358;2024-03-23T06:02:19;39.22;;;19.33;;
43662;SDS011;74813;56.104;40.358;2024-03-23T06:04:52;41.42;;;20.00;;
43662;SDS011;74813;56.104;40.358;2024-03-23T06:07:24;34.33;;;18.67;;
43662;SDS011;74813;56.104;40.358;2024-03-23T06:09:57;40.25;;;20.83;;
43662;SDS011;74813;56.104;40.358;2024-03-23T06:12:29;43.30;;;22.60;;
43662;SDS011;74813;56.104;40.358;2024-03-23T06:15:01;39.88;;;20.05;;
43662;SDS011;74813;56.104;40.358;2024-03-23T06:17:36;39.95;;;18.70;;
43662;SDS011;74813;56.104;40.358;2024-03-23T06:20:09;40.58;;;20.17;;
43662;SDS011;74813;56.104;40.358;2024-03-23T06:22:41;43.03;;;20.75;;
43662;SDS011;74813;56.104;40.358;2024-03-23T06:25:14;36.08;;;18.08;;
43662;SDS011;74813;56.104;40.358;2024-03-23T06:27:46;35.65;;;18.40;;
43662;SDS011;74813;56.104;40.358;2024-03-23T06:30:19;35.95;;;17.75;;
43662;SDS011;74813;56.104;40.358;2024-03-23T06:32:51;37.03;;;18.88;;
43662;SDS011;74813;56.104;40.358;2024-03-23T06:35:23;33.55;;;18.23;;
43662;SDS011;74813;56.104;40.358;2024-03-23T06:37:56;34.53;;;17.40;;
43662;SDS011;74813;56.104;40.358;2024-03-23T06:40:28;33.10;;;17.13;;
43662;SDS011;74813;56.104;40.358;2024-03-23T06:43:00;35.60;;;18.83;;
43662;SDS011;74813;56.104;40.358;2024-03-23T06:45:33;40.22;;;22.08;;
43662;SDS011;74813;56.104;40.358;2024-03-23T06:48:05;39.38;;;20.15;;
43662;SDS011;74813;56.104;40.358;2024-03-23T06:50:38;39.05;;;21.52;;
43662;SDS011;74813;56.104;40.358;2024-03-23T06:53:10;37.08;;;21.05;;
43662;SDS011;74813;56.104;40.358;2024-03-23T06:55:43;38.35;;;19.20;;
43662;SDS011;74813;56.104;40.358;2024-03-23T06:58:23;43.30;;;21.02;;
43662;SDS011;74813;56.104;40.358;2024-03-23T07:00:56;38.90;;;20.23;;
43662;SDS011;74813;56.104;40.358;2024-03-23T07:03:29;37.75;;;21.58;;
43662;SDS011;74813;56.104;40.358;2024-03-23T07:06:01;39.75;;;22.70;;
43662;SDS011;74813;56.104;40.358;2024-03-23T07:08:34;43.42;;;22.65;;
43662;SDS011;74813;56.104;40.358;2024-03-23T07:11:06;49.78;;;27.25;;
43662;SDS011;74813;56.104;40.358;2024-03-23T07:13:39;40.17;;;20.20;;
43662;SDS011;74813;56.104;40.358;2024-03-23T07:16:12;43.90;;;22.65;;
43662;SDS011;74813;56.104;40.358;2024-03-23T07:18:45;81.30;;;35.80;;
43662;SDS011;74813;56.104;40.358;2024-03-23T07:21:18;72.63;;;31.95;;
43662;SDS011;74813;56.104;40.358;2024-03-23T07:23:50;68.20;;;32.17;;
43662;SDS011;74813;56.104;40.358;2024-03-23T07:26:22;42.65;;;21.48;;
43662;SDS011;74813;56.104;40.358;2024-03-23T07:28:55;66.65;;;31.92;;
43662;SDS011;74813;56.104;40.358;2024-03-23T07:31:27;36.90;;;19.42;;
43662;SDS011;74813;56.104;40.358;2024-03-23T07:34:00;40.00;;;21.17;;
43662;SDS011;74813;56.104;40.358;2024-03-23T07:36:32;38.08;;;18.95;;
43662;SDS011;74813;56.104;40.358;2024-03-23T07:39:05;43.75;;;22.15;;
43662;SDS011;74813;56.104;40.358;2024-03-23T07:41:37;34.35;;;17.98;;
43662;SDS011;74813;56.104;40.358;2024-03-23T07:44:09;38.20;;;20.73;;
43662;SDS011;74813;56.104;40.358;2024-03-23T07:46:42;35.63;;;18.73;;
43662;SDS011;74813;56.104;40.358;2024-03-23T07:49:14;42.05;;;21.55;;
43662;SDS011;74813;56.104;40.358;2024-03-23T07:51:47;34.08;;;18.63;;
43662;SDS011;74813;56.104;40.358;2024-03-23T07:54:19;36.40;;;18.80;;
43662;SDS011;74813;56.104;40.358;2024-03-23T07:56:52;34.03;;;18.23;;
43662;SDS011;74813;56.104;40.358;2024-03-23T07:59:24;38.78;;;20.20;;
43662;SDS011;74813;56.104;40.358;2024-03-23T08:01:56;31.80;;;15.85;;
43662;SDS011;74813;56.104;40.358;2024-03-23T08:04:29;33.55;;;17.58;;
43662;SDS011;74813;56.104;40.358;2024-03-23T08:07:01;32.17;;;18.95;;
43662;SDS011;74813;56.104;40.358;2024-03-23T08:09:33;35.90;;;18.60;;
43662;SDS011;74813;56.104;40.358;2024-03-23T08:12:06;36.80;;;20.08;;
43662;SDS011;74813;56.104;40.358;2024-03-23T08:14:39;38.53;;;20.08;;
43662;SDS011;74813;56.104;40.358;2024-03-23T08:17:11;36.13;;;20.27;;
43662;SDS011;74813;56.104;40.358;2024-03-23T08:19:43;35.58;;;18.00;;
43662;SDS011;74813;56.104;40.358;2024-03-23T08:22:16;37.20;;;19.08;;
43662;SDS011;74813;56.104;40.358;2024-03-23T08:24:48;37.38;;;18.50;;
43662;SDS011;74813;56.104;40.358;2024-03-23T08:27:20;41.47;;;23.42;;
43662;SDS011;74813;56.104;40.358;2024-03-23T08:29:53;37.88;;;20.30;;
43662;SDS011;74813;56.104;40.358;2024-03-23T08:32:25;40.35;;;19.08;;
43662;SDS011;74813;56.104;40.358;2024-03-23T08:34:58;36.13;;;19.70;;
43662;SDS011;74813;56.104;40.358;2024-03-23T08:37:30;33.97;;;18.55;;
43662;SDS011;74813;56.104;40.358;2024-03-23T08:40:02;41.85;;;20.70;;
43662;SDS011;74813;56.104;40.358;2024-03-23T08:42:35;35.53;;;19.83;;
43662;SDS011;74813;56.104;40.358;2024-03-23T08:45:08;36.95;;;19.25;;
43662;SDS011;74813;56.104;40.358;2024-03-23T08:47:40;48.10;;;23.80;;
43662;SDS011;74813;56.104;40.358;2024-03-23T08:50:12;45.28;;;23.75;;
43662;SDS011;74813;56.104;40.358;2024-03-23T08:52:45;40.58;;;21.40;;
43662;SDS011;74813;56.104;40.358;2024-03-23T08:55:17;37.40;;;21.08;;
43662;SDS011;74813;56.104;40.358;2024-03-23T08:57:51;41.53;;;20.27;;
43662;SDS011;74813;56.104;40.358;2024-03-23T09:00:23;37.28;;;19.60;;
43662;SDS011;74813;56.104;40.358;2024-03-23T09:02:55;40.15;;;21.73;;
43662;SDS011;74813;56.104;40.358;2024-03-23T09:05:28;39.83;;;20.05;;
43662;SDS011;74813;56.104;40.358;2024-03-23T09:08:00;37.47;;;19.75;;
43662;SDS011;74813;56.104;40.358;2024-03-23T09:10:37;40.22;;;22.13;;
43662;SDS011;74813;56.104;40.358;2024-03-23T09:13:11;34.63;;;20.50;;
43662;SDS011;74813;56.104;40.358;2024-03-23T09:15:47;36.60;;;19.88;;
43662;SDS011;74813;56.104;40.358;2024-03-23T09:18:20;48.50;;;24.17;;
43662;SDS011;74813;56.104;40.358;2024-03-23T09:20:52;43.83;;;22.80;;
43662;SDS011;74813;56.104;40.358;2024-03-23T09:23:25;42.63;;;22.95;;
43662;SDS011;74813;56.104;40.358;2024-03-23T09:25:57;46.85;;;24.58;;
43662;SDS011;74813;56.104;40.358;2024-03-23T09:28:34;49.88;;;25.35;;
43662;SDS011;74813;56.104;40.358;2024-03-23T09:31:07;46.90;;;22.52;;
43662;SDS011;74813;56.104;40.358;2024-03-23T09:33:41;54.45;;;25.17;;
43662;SDS011;74813;56.104;40.358;2024-03-23T09:36:14;54.97;;;28.08;;
43662;SDS011;74813;56.104;40.358;2024-03-23T09:38:46;53.92;;;25.33;;
43662;SDS011;74813;56.104;40.358;2024-03-23T09:41:18;50.70;;;27.13;;
43662;SDS011;74813;56.104;40.358;2024-03-23T09:43:53;49.00;;;26.23;;
43662;SDS011;74813;56.104;40.358;2024-03-23T09:46:26;41.50;;;22.83;;
43662;SDS011;74813;56.104;40.358;2024-03-23T09:48:58;54.67;;;28.90;;
43662;SDS011;74813;56.104;40.358;2024-03-23T09:51:31;39.53;;;21.35;;
43662;SDS011;74813;56.104;40.358;2024-03-23T09:54:03;46.80;;;25.40;;
43662;SDS011;74813;56.104;40.358;2024-03-23T09:56:36;42.22;;;23.20;;
43662;SDS011;74813;56.104;40.358;2024-03-23T09:59:08;43.58;;;24.73;;
43662;SDS011;74813;56.104;40.358;2024-03-23T10:01:41;52.38;;;27.42;;
43662;SDS011;74813;56.104;40.358;2024-03-23T10:04:35;50.92;;;25.65;;
43662;SDS011;74813;56.104;40.358;2024-03-23T10:07:12;41.63;;;23.10;;
43662;SDS011;74813;56.104;40.358;2024-03-23T10:09:46;42.72;;;22.92;;
43662;SDS011;74813;56.104;40.358;2024-03-23T10:12:19;40.35;;;22.25;;
43662;SDS011;74813;56.104;40.358;2024-03-23T10:14:52;42.72;;;23.63;;
43662;SDS011;74813;56.104;40.358;2024-03-23T10:17:24;41.65;;;20.85;;
43662;SDS011;74813;56.104;40.358;2024-03-23T10:19:57;39.45;;;21.77;;
43662;SDS011;74813;56.104;40.358;2024-03-23T10:22:29;39.65;;;22.23;;
43662;SDS011;74813;56.104;40.358;2024-03-23T10:25:09;43.15;;;23.33;;
43662;SDS011;74813;56.104;40.358;2024-03-23T10:27:42;35.92;;;21.50;;
43662;SDS011;74813;56.104;40.358;2024-03-23T10:30:14;41.97;;;24.20;;
43662;SDS011;74813;56.104;40.358;2024-03-23T10:32:47;40.83;;;23.13;;
43662;SDS011;74813;56.104;40.358;2024-03-23T10:35:20;35.55;;;21.25;;
43662;SDS011;74813;56.104;40.358;2024-03-23T10:37:52;47.10;;;26.02;;
43662;SDS011;74813;56.104;40.358;2024-03-23T10:40:25;45.97;;;27.02;;
43662;SDS011;74813;56.104;40.358;2024-03-23T10:42:59;44.47;;;24.42;;
43662;SDS011;74813;56.104;40.358;2024-03-23T10:45:32;42.38;;;23.63;;
43662;SDS011;74813;56.104;40.358;2024-03-23T10:48:04;40.53;;;23.58;;
43662;SDS011;74813;56.104;40.358;2024-03-23T10:50:37;42.63;;;23.85;;
43662;SDS011;74813;56.104;40.358;2024-03-23T10:53:10;38.55;;;21.40;;
43662;SDS011;74813;56.104;40.358;2024-03-23T10:55:42;34.80;;;20.10;;
43662;SDS011;74813;56.104;40.358;2024-03-23T10:58:15;42.47;;;23.65;;
43662;SDS011;74813;56.104;40.358;2024-03-23T11:00:53;42.08;;;22.77;;
43662;SDS011;74813;56.104;40.358;2024-03-23T11:03:35;40.05;;;23.50;;
43662;SDS011;74813;56.104;40.358;2024-03-23T11:06:09;40.75;;;21.58;;
43662;SDS011;74813;56.104;40.358;2024-03-23T11:08:42;35.85;;;21.13;;
43662;SDS011;74813;56.104;40.358;2024-03-23T11:11:21;36.15;;;20.90;;
43662;SDS011;74813;56.104;40.358;2024-03-23T11:13:54;38.80;;;22.83;;
43662;SDS011;74813;56.104;40.358;2024-03-23T11:16:27;35.40;;;20.70;;
43662;SDS011;74813;56.104;40.358;2024-03-23T11:22:07;31.10;;;17.10;;
43662;SDS011;74813;56.104;40.358;2024-03-23T11:24:39;35.88;;;20.08;;
43662;SDS011;74813;56.104;40.358;2024-03-23T11:27:15;33.92;;;20.70;;
43662;SDS011;74813;56.104;40.358;2024-03-23T11:29:48;34.53;;;21.88;;
43662;SDS011;74813;56.104;40.358;2024-03-23T11:32:20;33.42;;;20.00;;
43662;SDS011;74813;56.104;40.358;2024-03-23T11:34:53;39.47;;;22.05;;
43662;SDS011;74813;56.104;40.358;2024-03-23T11:37:25;33.97;;;18.90;;
43662;SDS011;74813;56.104;40.358;2024-03-23T11:39:57;39.72;;;22.60;;
43662;SDS011;74813;56.104;40.358;2024-03-23T11:42:30;42.35;;;22.48;;
43662;SDS011;74813;56.104;40.358;2024-03-23T11:45:07;41.10;;;23.90;;
43662;SDS011;74813;56.104;40.358;2024-03-23T11:47:40;34.13;;;18.77;;
43662;SDS011;74813;56.104;40.358;2024-03-23T11:50:19;38.78;;;22.88;;
43662;SDS011;74813;56.104;40.358;2024-03-23T11:52:52;39.20;;;23.77;;
43662;SDS011;74813;56.104;40.358;2024-03-23T11:55:24;42.15;;;23.83;;
43662;SDS011;74813;56.104;40.358;2024-03-23T11:57:56;39.47;;;22.50;;
43662;SDS011;74813;56.104;40.358;2024-03-23T12:00:29;37.03;;;22.15;;
43662;SDS011;74813;56.104;40.358;2024-03-23T12:03:01;35.42;;;20.83;;
43662;SDS011;74813;56.104;40.358;2024-03-23T12:05:34;37.42;;;22.00;;
43662;SDS011;74813;56.104;40.358;2024-03-23T12:10:53;34.55;;;19.08;;
43662;SDS011;74813;56.104;40.358;2024-03-23T12:16:29;30.03;;;17.70;;
43662;SDS011;74813;56.104;40.358;2024-03-23T12:19:04;35.13;;;20.23;;
43662;SDS011;74813;56.104;40.358;2024-03-23T12:21:37;32.72;;;18.95;;
43662;SDS011;74813;56.104;40.358;2024-03-23T12:24:10;33.35;;;19.65;;
43662;SDS011;74813;56.104;40.358;2024-03-23T12:26:42;32.95;;;17.67;;
43662;SDS011;74813;56.104;40.358;2024-03-23T12:29:14;30.85;;;17.73;;
43662;SDS011;74813;56.104;40.358;2024-03-23T12:31:47;29.70;;;16.13;;
43662;SDS011;74813;56.104;40.358;2024-03-23T12:34:19;29.10;;;16.95;;
43662;SDS011;74813;56.104;40.358;2024-03-23T12:36:51;30.35;;;17.27;;
43662;SDS011;74813;56.104;40.358;2024-03-23T12:39:24;33.60;;;20.08;;
43662;SDS011;74813;56.104;40.358;2024-03-23T12:41:56;35.60;;;21.65;;
43662;SDS011;74813;56.104;40.358;2024-03-23T12:44:29;30.35;;;17.35;;
43662;SDS011;74813;56.104;40.358;2024-03-23T12:47:01;32.75;;;20.38;;
43662;SDS011;74813;56.104;40.358;2024-03-23T12:49:33;30.85;;;18.20;;
43662;SDS011;74813;56.104;40.358;2024-03-23T12:52:06;29.23;;;17.45;;
43662;SDS011;74813;56.104;40.358;2024-03-23T12:54:38;29.50;;;17.48;;
43662;SDS011;74813;56.104;40.358;2024-03-23T12:57:11;29.85;;;16.17;;
43662;SDS011;74813;56.104;40.358;2024-03-23T12:59:43;29.42;;;17.08;;
43662;SDS011;74813;56.104;40.358;2024-03-23T13:02:15;28.75;;;16.38;;
43662;SDS011;74813;56.104;40.358;2024-03-23T13:04:54;28.65;;;18.02;;
43662;SDS011;74813;56.104;40.358;2024-03-23T13:07:27;29.42;;;17.75;;
43662;SDS011;74813;56.104;40.358;2024-03-23T13:09:59;30.60;;;17.90;;
43662;SDS011;74813;56.104;40.358;2024-03-23T13:12:32;33.70;;;19.33;;
43662;SDS011;74813;56.104;40.358;2024-03-23T13:15:04;32.75;;;18.88;;
43662;SDS011;74813;56.104;40.358;2024-03-23T13:17:39;31.40;;;18.67;;
43662;SDS011;74813;56.104;40.358;2024-03-23T13:20:11;31.13;;;17.70;;
43662;SDS011;74813;56.104;40.358;2024-03-23T13:22:44;33.58;;;19.30;;
43662;SDS011;74813;56.104;40.358;2024-03-23T13:25:16;28.48;;;17.67;;
43662;SDS011;74813;56.104;40.358;2024-03-23T13:27:48;27.77;;;16.20;;
43662;SDS011;74813;56.104;40.358;2024-03-23T13:30:21;33.75;;;19.58;;
43662;SDS011;74813;56.104;40.358;2024-03-23T13:32:53;34.05;;;19.77;;
43662;SDS011;74813;56.104;40.358;2024-03-23T13:35:25;32.72;;;18.50;;
43662;SDS011;74813;56.104;40.358;2024-03-23T13:37:58;31.90;;;18.80;;
43662;SDS011;74813;56.104;40.358;2024-03-23T13:40:30;33.13;;;19.40;;
43662;SDS011;74813;56.104;40.358;2024-03-23T13:43:02;32.25;;;18.98;;
43662;SDS011;74813;56.104;40.358;2024-03-23T13:45:35;38.58;;;21.17;;
43662;SDS011;74813;56.104;40.358;2024-03-23T13:48:07;35.55;;;20.95;;
43662;SDS011;74813;56.104;40.358;2024-03-23T13:50:40;33.85;;;19.65;;
43662;SDS011;74813;56.104;40.358;2024-03-23T13:53:12;38.58;;;20.80;;
43662;SDS011;74813;56.104;40.358;2024-03-23T13:55:47;36.53;;;20.35;;
43662;SDS011;74813;56.104;40.358;2024-03-23T13:58:20;36.42;;;21.20;;
43662;SDS011;74813;56.104;40.358;2024-03-23T14:00:53;32.88;;;18.73;;
43662;SDS011;74813;56.104;40.358;2024-03-23T14:03:25;36.67;;;21.08;;
43662;SDS011;74813;56.104;40.358;2024-03-23T14:05:58;36.08;;;20.80;;
43662;SDS011;74813;56.104;40.358;2024-03-23T14:08:30;38.97;;;21.00;;
43662;SDS011;74813;56.104;40.358;2024-03-23T14:11:03;39.33;;;20.90;;
43662;SDS011;74813;56.104;40.358;2024-03-23T14:13:38;39.85;;;22.63;;
43662;SDS011;74813;56.104;40.358;2024-03-23T14:16:10;40.35;;;21.88;;
43662;SDS011;74813;56.104;40.358;2024-03-23T14:18:43;40.67;;;22.02;;
43662;SDS011;74813;56.104;40.358;2024-03-23T14:21:15;40.47;;;23.15;;
43662;SDS011;74813;56.104;40.358;2024-03-23T14:23:48;43.70;;;23.35;;
43662;SDS011;74813;56.104;40.358;2024-03-23T14:26:20;47.80;;;24.90;;
43662;SDS011;74813;56.104;40.358;2024-03-23T14:28:52;46.03;;;23.83;;
43662;SDS011;74813;56.104;40.358;2024-03-23T14:31:25;50.05;;;25.48;;
43662;SDS011;74813;56.104;40.358;2024-03-23T14:33:57;48.85;;;24.63;;
43662;SDS011;74813;56.104;40.358;2024-03-23T14:36:30;51.25;;;25.20;;
43662;SDS011;74813;56.104;40.358;2024-03-23T14:39:02;50.13;;;25.15;;
43662;SDS011;74813;56.104;40.358;2024-03-23T14:41:34;54.53;;;26.65;;
43662;SDS011;74813;56.104;40.358;2024-03-23T14:44:07;55.22;;;26.50;;
43662;SDS011;74813;56.104;40.358;2024-03-23T14:46:39;59.60;;;28.83;;
43662;SDS011;74813;56.104;40.358;2024-03-23T14:49:14;57.30;;;28.33;;
43662;SDS011;74813;56.104;40.358;2024-03-23T14:51:47;54.42;;;26.83;;
43662;SDS011;74813;56.104;40.358;2024-03-23T14:54:19;59.15;;;28.10;;
43662;SDS011;74813;56.104;40.358;2024-03-23T14:56:52;60.33;;;27.83;;
43662;SDS011;74813;56.104;40.358;2024-03-23T14:59:25;54.75;;;27.90;;
43662;SDS011;74813;56.104;40.358;2024-03-23T15:01:57;56.05;;;29.35;;
43662;SDS011;74813;56.104;40.358;2024-03-23T15:04:29;59.47;;;28.88;;
43662;SDS011;74813;56.104;40.358;2024-03-23T15:07:02;58.92;;;29.75;;
43662;SDS011;74813;56.104;40.358;2024-03-23T15:09:34;52.08;;;27.65;;
43662;SDS011;74813;56.104;40.358;2024-03-23T15:12:07;56.80;;;28.63;;
43662;SDS011;74813;56.104;40.358;2024-03-23T15:14:39;64.53;;;31.10;;
43662;SDS011;74813;56.104;40.358;2024-03-23T15:17:11;59.78;;;28.40;;
43662;SDS011;74813;56.104;40.358;2024-03-23T15:19:44;63.60;;;29.08;;
43662;SDS011;74813;56.104;40.358;2024-03-23T15:22:16;63.83;;;30.75;;
43662;SDS011;74813;56.104;40.358;2024-03-23T15:24:49;61.15;;;28.75;;
43662;SDS011;74813;56.104;40.358;2024-03-23T15:27:21;61.92;;;30.45;;
43662;SDS011;74813;56.104;40.358;2024-03-23T15:29:55;61.63;;;29.95;;
43662;SDS011;74813;56.104;40.358;2024-03-23T15:32:28;62.58;;;29.83;;
43662;SDS011;74813;56.104;40.358;2024-03-23T15:35:00;58.78;;;27.63;;
43662;SDS011;74813;56.104;40.358;2024-03-23T15:37:33;57.17;;;27.88;;
43662;SDS011;74813;56.104;40.358;2024-03-23T15:40:06;58.33;;;28.23;;
43662;SDS011;74813;56.104;40.358;2024-03-23T15:42:39;58.50;;;29.25;;